Oakesdale, WA (99158)

3:39 AM PDT on August 21, 2014 (GMT -0700)
KWAGARFI3 | Change Station
CLOSE
Current Station
Personal Weather Station
Location: Garfield, WA
Elevation: 2520 ft
Nearby Weather Stations

Elev 2520 ft 47.01 °N, 117.15 °W | Updated 4 minutes ago

Partly Cloudy
Partly Cloudy
52.3 °F
Feels Like 52.3 °F
N
0.0
Wind Variable Wind from NE
Gusts 0.0 mph

Today
High -- | Low -- °F
--% Chance of Precip.
Yesterday
High -- | Low -- °F
Precip. -- in
5:53 AM 7:49 PM
Waning Crescent, 15% visible
Pressure 29.93 in
Visibility 10.0 miles
Clouds Few 9500 ft
Dew Point 50 °F
Humidity 93%
Rainfall 0.00 in
Snow Depth Not available.
UV 0 out of 12
Pollen 6.60 out of 12
Air Quality Not available.
Flu Activity Not available.
METAR KPUW 210953Z AUTO 00000KT 10SM FEW095 13/08 A2996 RMK AO2 SLP133 T01280078

More Conditions Fewer Conditions

Pressure 29.93 in
Visibility 10.0 miles
Clouds Few 9500 ft
Dew Point 50 °F
Humidity 93%
Rainfall 0.00 in
Snow Depth Not available.
UV 0 out of 12
Pollen 6.60 out of 12
Air Quality Not available.
Flu Activity Not available.
METAR KPUW 210953Z AUTO 00000KT 10SM FEW095 13/08 A2996 RMK AO2 SLP133 T01280078

More Conditions Fewer Conditions

10-Day Weather Forecast

Almanac

Astronomy

Aug. 21, 2014 Rise Set
Actual Time 5:53 AM PDT 7:49 PM PDT
Civil Twilight 5:21 AM PDT 8:21 PM PDT
Nautical Twilight 4:40 AM PDT 9:02 PM PDT
Astronomical Twilight 3:56 AM PDT 9:46 PM PDT
Moon 2:21 AM PDT 5:26 PM PDT
Length of Visible Light 15h 00m
Length of Day
13h 55m
Tomorrow will be 3m 8s shorter.
Waning Crescent, 15% of the Moon is Illuminated
Today
Waning Crescent
Aug 25
New
Sep 2
First Quarter
Sep 8
Full
Sep 15
Last Quarter

Today's Extremes

State Highs State Lows

Community

WunderPhotos

Upload Photos

1,745,871 photos uploaded!

Nearby

Snow Depth

Station Depth Elevation
Quartz Peak 2 in 4700 ft
Spruce Springs 0 in 5700 ft
Touchet 0 in 5530 ft
Bunchgrass Meadow 0 in 5000 ft
Moses Mountain 1 in 5300 ft

Earthquake Activity

City Distance Mag. Time & Date
No recent earthquake activity has been reported nearby.
Minimum magnitude displayed is 2.5.

Coastal Water Temperatures

Place Temperature
No Stations Reporting

Nearby Weather Stations